Terminal Aerodrome Forecast
Issued by NWS Charleston, WV

Current Version | Previous Version | Graphics & Text | Print | Product List | Glossary On
Versions: 1 2 3 4 5 6 7 8 9 10 11 12 13 14 15 16 17 18 19 20 21 22 23 24 25 26 27 28 29 30 31
000
FTUS41 KRLX 191400 AAB
TAFEKN
TAF AMD
KEKN 191445Z 1915/2012 35007KT P6SM BKN025
     FM191800 28006KT P6SM SCT025
     FM192300 00000KT P6SM SKC
     FM200300 00000KT 4SM HZ SCT007=

USA.gov is the U.S. government's official web portal to all federal, state and local government web resources and services.